GBODE EGCV-EGNO
Flight info
| Callsign | GBODE |
|---|---|
| Flight time | 0h 47m |
| Altitude | 2300 |
| Route | EGBO DCT BRIDGNORTH DCT MONTFORD BRIDGE DCT EGCV |
| Aircraft | P28A/L-VGDW/C |
Departure
| Time | 2026-05-04 16:17 |
|---|---|
| Airport | Sleap Airfield (EGCV) |
Arrival
| Time | 2026-05-04 17:04 |
|---|---|
| Airport | Warton Aerodrome (EGNO) |
| Time | Latitude | Longitude | Altitude | Speed | Heading |
|---|---|---|---|---|---|
| 2026-05-04 15:56 | 52.83383 | -2.76849 | 276 ft | 0 kts | 2° |
| 2026-05-04 16:09 | 52.83389 | -2.76851 | 276 ft | 0 kts | 333° |
| 2026-05-04 16:10 | 52.83382 | -2.76989 | 277 ft | 9 kts | 252° |
| 2026-05-04 16:11 | 52.83044 | -2.77013 | 275 ft | 18 kts | 178° |
| 2026-05-04 16:11 | 52.82913 | -2.77007 | 274 ft | 19 kts | 178° |
| 2026-05-04 16:12 | 52.82789 | -2.77342 | 274 ft | 20 kts | 278° |
| 2026-05-04 16:12 | 52.82818 | -2.77752 | 275 ft | 0 kts | 317° |
| 2026-05-04 16:15 | 52.82841 | -2.77951 | 275 ft | 10 kts | 304° |
| 2026-05-04 16:16 | 52.82997 | -2.77824 | 274 ft | 24 kts | 44° |
| 2026-05-04 16:16 | 52.83770 | -2.76570 | 631 ft | 73 kts | 50° |
| 2026-05-04 16:17 | 52.84617 | -2.76902 | 1203 ft | 77 kts | 321° |
| 2026-05-04 16:18 | 52.85759 | -2.78611 | 2078 ft | 73 kts | 322° |
| 2026-05-04 16:18 | 52.86143 | -2.79170 | 2287 ft | 79 kts | 325° |
| 2026-05-04 16:19 | 52.87480 | -2.81041 | 2358 ft | 84 kts | 319° |
| 2026-05-04 16:19 | 52.88224 | -2.82659 | 2354 ft | 91 kts | 312° |
| 2026-05-04 16:20 | 52.89464 | -2.85198 | 2390 ft | 96 kts | 316° |
| 2026-05-04 16:20 | 52.90340 | -2.86841 | 2301 ft | 92 kts | 321° |
| 2026-05-04 16:21 | 52.92057 | -2.88136 | 2159 ft | 89 kts | 342° |
| 2026-05-04 16:22 | 52.93166 | -2.88883 | 2158 ft | 84 kts | 340° |
| 2026-05-04 16:22 | 52.94759 | -2.90004 | 2151 ft | 81 kts | 341° |
| 2026-05-04 16:23 | 52.96312 | -2.91093 | 2283 ft | 77 kts | 340° |
| 2026-05-04 16:24 | 52.98314 | -2.92545 | 2413 ft | 77 kts | 341° |
| 2026-05-04 16:25 | 52.99305 | -2.93319 | 2508 ft | 85 kts | 338° |
| 2026-05-04 16:26 | 53.01519 | -2.94772 | 2298 ft | 87 kts | 344° |
| 2026-05-04 16:26 | 53.03158 | -2.95992 | 2366 ft | 85 kts | 341° |
| 2026-05-04 16:27 | 53.04256 | -2.96793 | 2393 ft | 85 kts | 342° |
| 2026-05-04 16:28 | 53.05927 | -2.97936 | 2353 ft | 91 kts | 344° |
| 2026-05-04 16:28 | 53.07696 | -2.99032 | 2186 ft | 89 kts | 343° |
| 2026-05-04 16:29 | 53.09925 | -3.00838 | 2095 ft | 89 kts | 336° |
| 2026-05-04 16:30 | 53.11582 | -3.02232 | 2097 ft | 89 kts | 338° |
| 2026-05-04 16:31 | 53.12699 | -3.03123 | 2088 ft | 87 kts | 340° |
| 2026-05-04 16:31 | 53.14369 | -3.04466 | 2084 ft | 88 kts | 339° |
| 2026-05-04 16:32 | 53.15963 | -3.04972 | 2008 ft | 73 kts | 355° |
| 2026-05-04 16:33 | 53.17000 | -3.05165 | 1843 ft | 76 kts | 359° |
| 2026-05-04 16:33 | 53.18114 | -3.05287 | 1767 ft | 85 kts | 1° |
| 2026-05-04 16:34 | 53.19318 | -3.05305 | 1808 ft | 87 kts | 3° |
| 2026-05-04 16:34 | 53.19918 | -3.05355 | 1680 ft | 87 kts | 358° |
| 2026-05-04 16:35 | 53.21685 | -3.05781 | 1675 ft | 86 kts | 356° |
| 2026-05-04 16:35 | 53.23342 | -3.06911 | 1785 ft | 90 kts | 322° |
| 2026-05-04 16:36 | 53.23820 | -3.07638 | 1672 ft | 94 kts | 323° |
| 2026-05-04 16:36 | 53.24763 | -3.08986 | 1666 ft | 86 kts | 329° |
| 2026-05-04 16:37 | 53.25730 | -3.10190 | 1750 ft | 90 kts | 329° |
| 2026-05-04 16:37 | 53.26220 | -3.10781 | 1809 ft | 86 kts | 331° |
| 2026-05-04 16:37 | 53.27232 | -3.11907 | 1822 ft | 87 kts | 329° |
| 2026-05-04 16:38 | 53.28205 | -3.13190 | 1781 ft | 90 kts | 328° |
| 2026-05-04 16:39 | 53.29708 | -3.15052 | 1799 ft | 88 kts | 327° |
| 2026-05-04 16:39 | 53.30551 | -3.16086 | 1808 ft | 88 kts | 333° |
| 2026-05-04 16:40 | 53.31724 | -3.17561 | 1740 ft | 91 kts | 329° |
| 2026-05-04 16:40 | 53.32586 | -3.18582 | 1726 ft | 90 kts | 329° |
| 2026-05-04 16:41 | 53.33581 | -3.19820 | 1723 ft | 89 kts | 330° |
| 2026-05-04 16:41 | 53.35102 | -3.21580 | 1706 ft | 89 kts | 330° |
| 2026-05-04 16:42 | 53.36576 | -3.23406 | 1718 ft | 90 kts | 329° |
| 2026-05-04 16:43 | 53.37597 | -3.24574 | 1737 ft | 87 kts | 345° |
| 2026-05-04 16:43 | 53.38716 | -3.24288 | 1771 ft | 84 kts | 24° |
| 2026-05-04 16:43 | 53.39206 | -3.23789 | 1791 ft | 83 kts | 43° |
| 2026-05-04 16:44 | 53.40618 | -3.20709 | 1778 ft | 84 kts | 52° |
| 2026-05-04 16:45 | 53.41318 | -3.19174 | 1769 ft | 83 kts | 54° |
| 2026-05-04 16:46 | 53.42343 | -3.16870 | 1784 ft | 80 kts | 54° |
| 2026-05-04 16:46 | 53.42988 | -3.15303 | 1789 ft | 81 kts | 57° |
| 2026-05-04 16:47 | 53.43688 | -3.13761 | 1816 ft | 84 kts | 54° |
| 2026-05-04 16:47 | 53.44421 | -3.12170 | 1768 ft | 88 kts | 53° |
| 2026-05-04 16:48 | 53.45462 | -3.09654 | 1660 ft | 88 kts | 56° |
| 2026-05-04 16:48 | 53.45811 | -3.08815 | 1664 ft | 86 kts | 57° |
| 2026-05-04 16:49 | 53.46485 | -3.07137 | 1626 ft | 85 kts | 58° |
| 2026-05-04 16:49 | 53.47086 | -3.05432 | 1614 ft | 85 kts | 60° |
| 2026-05-04 16:50 | 53.47687 | -3.03703 | 1736 ft | 87 kts | 37° |
| 2026-05-04 16:50 | 53.48833 | -3.03580 | 2318 ft | 82 kts | 7° |
| 2026-05-04 16:51 | 53.49973 | -3.03627 | 2834 ft | 80 kts | 8° |
| 2026-05-04 16:51 | 53.50528 | -3.03613 | 3031 ft | 81 kts | 7° |
| 2026-05-04 16:51 | 53.51671 | -3.03643 | 3108 ft | 82 kts | 7° |
| 2026-05-04 16:52 | 53.52859 | -3.03569 | 3060 ft | 86 kts | 8° |
| 2026-05-04 16:52 | 53.53478 | -3.03526 | 3017 ft | 89 kts | 9° |
| 2026-05-04 16:53 | 53.54721 | -3.03408 | 3036 ft | 88 kts | 13° |
| 2026-05-04 16:53 | 53.56554 | -3.03204 | 3045 ft | 88 kts | 8° |
| 2026-05-04 16:54 | 53.57167 | -3.03142 | 3046 ft | 88 kts | 10° |
| 2026-05-04 16:55 | 53.59613 | -3.02890 | 3037 ft | 88 kts | 10° |
| 2026-05-04 16:55 | 53.60841 | -3.02749 | 3053 ft | 88 kts | 9° |
| 2026-05-04 16:56 | 53.62072 | -3.02657 | 3083 ft | 89 kts | 8° |
| 2026-05-04 16:56 | 53.63892 | -3.02456 | 3029 ft | 85 kts | 13° |
| 2026-05-04 16:57 | 53.64443 | -3.02187 | 2925 ft | 82 kts | 27° |
| 2026-05-04 16:57 | 53.65472 | -3.01323 | 2733 ft | 84 kts | 32° |
| 2026-05-04 16:58 | 53.67024 | -2.99923 | 2383 ft | 85 kts | 34° |
| 2026-05-04 16:58 | 53.67533 | -2.99420 | 2271 ft | 84 kts | 34° |
| 2026-05-04 16:59 | 53.68644 | -2.98907 | 2046 ft | 86 kts | 5° |
| 2026-05-04 17:00 | 53.71039 | -2.98856 | 1771 ft | 84 kts | 11° |
| 2026-05-04 17:00 | 53.72808 | -2.98614 | 1371 ft | 85 kts | 13° |
| 2026-05-04 17:01 | 53.73865 | -2.98297 | 1057 ft | 68 kts | 18° |
| 2026-05-04 17:01 | 53.74721 | -2.98128 | 716 ft | 57 kts | 3° |
| 2026-05-04 17:02 | 53.75520 | -2.98113 | 581 ft | 55 kts | 357° |
| 2026-05-04 17:02 | 53.76277 | -2.98236 | 508 ft | 54 kts | 357° |
| 2026-05-04 17:03 | 53.76648 | -2.98278 | 499 ft | 53 kts | 357° |
| 2026-05-04 17:03 | 53.76937 | -2.98641 | 431 ft | 63 kts | 296° |
| 2026-05-04 17:03 | 53.76996 | -3.00104 | 242 ft | 59 kts | 287° |
| 2026-05-04 17:04 | 53.77078 | -3.01483 | 72 ft | 59 kts | 284° |
| 2026-05-04 17:04 | 53.77139 | -3.02521 | 42 ft | 31 kts | 275° |
| 2026-05-04 17:05 | 53.77172 | -3.03205 | 44 ft | 29 kts | 276° |
| 2026-05-04 17:05 | 53.77197 | -3.03718 | 45 ft | 22 kts | 275° |
| 2026-05-04 17:06 | 53.77350 | -3.04154 | 43 ft | 20 kts | 307° |
| 2026-05-04 17:06 | 53.77425 | -3.04326 | 43 ft | 16 kts | 309° |
| 2026-05-04 17:07 | 53.77578 | -3.04234 | 43 ft | 6 kts | 29° |
| 2026-05-04 17:07 | 53.77602 | -3.04241 | 43 ft | 6 kts | 291° |
| 2026-05-04 17:07 | 53.77592 | -3.04344 | 43 ft | 8 kts | 249° |
| 2026-05-04 17:07 | 53.77575 | -3.04388 | 43 ft | 3 kts | 264° |
| 2026-05-04 17:08 | 53.77576 | -3.04399 | 43 ft | 0 kts | 333° |
| 2026-05-04 17:08 | 53.77577 | -3.04399 | 43 ft | 0 kts | 348° |